パリ/シャルル・ド・ゴール の空港の天気 - METARとTAF

シャルル・ド・ゴール国際空港(パリ) ( LFPG / CDG ) - フランス Paris
飛行場実況気象(Metar)
観測時間07/17 11:30 CEST (07/17 09:30 UTC)
風向・風速西 4m/s
視程10km以上
天気現象
少しの雲 雲底高度 940m
全天の4割程度の雲 雲底高度 1860m
気温23℃
湿度57%
気圧1018hPa
METARLFPG 170930Z 28007KT 230V320 9999 FEW031 SCT061 23/14 Q1018 NOSIG
過去の天気等 Google飛行場航空写真 Wunderground天気予報

過去48時間のMETAR

飛行場予報(TAF)
発表時間: 7/17 07:00 CEST (7/17 05:00 UTC)
予報対象時間: 17日8時 CEST ~ 18日14時 CEST
風向・風速西北西 5m/s
視程10km以上
なし
17日23時 CEST ~ 18日2時 CEST に徐々に
風向・風速北北東 3m/s
TAF LFPG 170500Z 1706/1812 29010KT CAVOK TX26/1812Z TN15/1804Z
BECMG 1721/1724 02005KT